Eaton, New York
Current Conditions -  °F | °C
As of 12:04 PM on Wednesday 26 Nov 2014 (Local Time) from KRME Reporting Station
Light Snow Light Snow  
Wind Chill: 28°   Ceiling: 1800
Heat Index: 33°   Visibility: 0.75mi
Dew Point: 28°   Wind: 6mph
Humidity: 82%   Direction: 120°ESE
Pressure: 30.16"   Gusts: NA
Location:  42.85°N, 75.61°W
Report Text: KRME 261704Z 12005KT 3/4SM -SN VV018 01/M02 A3016 RMK AO2 P0000 T00061022 RVRNO
Loading
Personal Weather Stations






























Interactive Weather Map New forecast layout! Learn more

10-Day Weather Forecast

Advertisements
Track Severe Weather on mobile